createdAt,value
2023-11-21T00:01:29.875Z,25.13
2023-11-21T00:06:27.143Z,27.42
2023-11-21T00:11:25.656Z,25.80
2023-11-21T00:16:24.055Z,28.67
2023-11-21T00:21:21.381Z,28.38
2023-11-21T00:26:18.873Z,32.53
2023-11-21T00:31:16.308Z,27.25
2023-11-21T00:36:13.778Z,30.48
2023-11-21T00:41:18.345Z,29.33
2023-11-21T00:46:23.643Z,25.90
2023-11-21T00:51:34.142Z,24.67
2023-11-21T00:56:39.602Z,26.27
2023-11-21T01:01:45.590Z,20.88
2023-11-21T01:06:49.502Z,21.98
2023-11-21T01:11:48.803Z,28.95
2023-11-21T01:16:47.528Z,27.67
2023-11-21T01:21:48.441Z,28.73
2023-11-21T01:26:50.397Z,26.73
2023-11-21T01:31:48.469Z,27.92
2023-11-21T01:36:48.001Z,23.88
2023-11-21T01:41:45.643Z,33.22
2023-11-21T01:46:43.074Z,25.60
2023-11-21T01:51:42.058Z,22.55
2023-11-21T01:56:39.359Z,33.47
2023-11-21T02:01:37.390Z,23.88
2023-11-21T02:06:35.362Z,24.10
2023-11-21T02:11:34.367Z,30.58
2023-11-21T02:16:32.824Z,27.90
2023-11-21T02:21:31.728Z,27.85
2023-11-21T02:26:29.032Z,33.83
2023-11-21T02:31:26.355Z,25.17
2023-11-21T02:36:23.579Z,22.48
2023-11-21T02:41:20.858Z,26.45
2023-11-21T02:46:18.416Z,30.02
2023-11-21T02:51:17.042Z,30.83
2023-11-21T02:56:14.529Z,28.08
2023-11-21T03:01:12.235Z,31.85
2023-11-21T03:06:09.864Z,19.63
2023-11-21T03:11:07.315Z,29.83
2023-11-21T03:16:05.330Z,28.27
2023-11-21T03:21:12.035Z,28.85
2023-11-21T03:26:14.138Z,26.15
2023-11-21T03:31:11.909Z,25.65
2023-11-21T03:36:10.641Z,26.27
2023-11-21T03:41:07.954Z,26.55
2023-11-21T03:46:05.534Z,21.35
2023-11-21T03:51:02.832Z,28.02
2023-11-21T03:56:00.082Z,29.02
2023-11-21T04:00:57.373Z,29.73
2023-11-21T04:05:54.869Z,27.20
2023-11-21T04:10:52.108Z,21.83
2023-11-21T04:15:49.634Z,29.02
2023-11-21T04:20:46.976Z,30.45
2023-11-21T04:25:44.697Z,31.80
2023-11-21T04:30:42.144Z,22.27
2023-11-21T04:35:40.076Z,23.85
2023-11-21T04:40:37.408Z,22.15
2023-11-21T04:45:35.516Z,24.92
2023-11-21T04:50:32.824Z,21.30
2023-11-21T04:55:30.433Z,24.30
2023-11-21T05:00:28.602Z,23.80
2023-11-21T05:05:27.888Z,26.10
2023-11-21T05:10:26.648Z,27.58
2023-11-21T05:15:24.816Z,23.40
2023-11-21T05:20:22.927Z,23.85
2023-11-21T05:25:22.878Z,22.63
2023-11-21T05:30:20.162Z,24.40
2023-11-21T05:35:18.249Z,22.80
2023-11-21T05:40:17.260Z,28.48
2023-11-21T05:45:15.072Z,27.38
2023-11-21T05:50:16.328Z,21.40
2023-11-21T05:55:14.647Z,24.40
2023-11-21T06:00:21.008Z,20.95
2023-11-21T06:05:20.064Z,17.27
2023-11-21T06:10:19.028Z,19.00
2023-11-21T06:15:16.797Z,22.80
2023-11-21T06:20:19.717Z,24.17
2023-11-21T06:25:17.340Z,24.50
2023-11-21T06:30:16.694Z,24.23
2023-11-21T06:35:14.624Z,27.48
2023-11-21T06:40:15.047Z,22.30
2023-11-21T06:45:12.428Z,20.15
2023-11-21T06:50:10.423Z,20.35
2023-11-21T06:55:10.231Z,22.73
2023-11-21T07:00:10.796Z,26.40
2023-11-21T07:05:08.841Z,27.05
2023-11-21T07:10:07.184Z,26.55
2023-11-21T07:15:07.029Z,25.35
2023-11-21T07:20:04.927Z,28.23
2023-11-21T07:25:02.375Z,23.52
2023-11-21T07:29:59.772Z,32.20
2023-11-21T07:34:58.856Z,25.15
2023-11-21T07:39:58.960Z,27.42
2023-11-21T07:44:56.384Z,23.58
2023-11-21T07:49:53.517Z,22.40
2023-11-21T07:54:50.914Z,20.58
2023-11-21T07:59:48.474Z,24.95
2023-11-21T08:04:46.036Z,31.17
2023-11-21T08:09:43.538Z,28.13
2023-11-21T08:14:41.931Z,24.65
2023-11-21T08:19:39.298Z,33.88
2023-11-21T08:24:36.856Z,30.08
2023-11-21T08:29:34.269Z,25.60
2023-11-21T08:34:31.759Z,29.15
2023-11-21T08:39:29.064Z,27.85
2023-11-21T08:44:26.482Z,28.50
2023-11-21T08:49:23.718Z,23.50
2023-11-21T08:54:21.341Z,26.25
2023-11-21T08:59:18.551Z,25.55
2023-11-21T09:04:15.916Z,24.75
2023-11-21T09:09:13.405Z,23.35
2023-11-21T09:14:11.418Z,22.23
2023-11-21T09:19:08.882Z,24.65
2023-11-21T09:24:06.522Z,27.75
2023-11-21T09:29:03.823Z,24.77
2023-11-21T09:34:01.132Z,26.73
2023-11-21T09:38:58.515Z,28.65
2023-11-21T09:44:02.126Z,25.17
2023-11-21T09:49:02.636Z,20.30
2023-11-21T09:54:03.700Z,27.38
2023-11-21T09:59:05.534Z,23.13
2023-11-21T10:04:03.042Z,20.13
2023-11-21T10:09:01.223Z,17.42
2023-11-21T10:14:01.393Z,20.05
2023-11-21T10:19:08.828Z,16.95
2023-11-21T10:24:08.988Z,20.15
2023-11-21T10:29:06.342Z,17.88
2023-11-21T10:34:16.922Z,15.77
2023-11-21T10:39:21.836Z,21.67
2023-11-21T10:44:24.588Z,26.60
2023-11-21T10:49:22.433Z,17.50
2023-11-21T10:54:23.601Z,18.63
2023-11-21T10:59:22.425Z,16.20
2023-11-21T11:04:23.847Z,19.17
2023-11-21T11:09:21.820Z,18.77
2023-11-21T11:14:21.184Z,21.60
2023-11-21T11:19:18.518Z,18.15
2023-11-21T11:24:53.036Z,13.10
2023-11-21T11:29:53.006Z,15.30
2023-11-21T11:35:07.806Z,14.77
2023-11-21T11:40:08.228Z,14.68
2023-11-21T11:45:20.697Z,15.90
2023-11-21T11:50:21.260Z,14.23
2023-11-21T11:55:20.292Z,12.10
2023-11-21T12:00:32.103Z,15.00
2023-11-21T12:05:30.669Z,13.93
2023-11-21T12:10:30.066Z,14.73
2023-11-21T12:15:30.410Z,15.23
2023-11-21T12:25:33.211Z,11.93
2023-11-21T12:30:32.862Z,14.20
2023-11-21T12:35:38.870Z,15.02
2023-11-21T12:40:36.323Z,16.23
2023-11-21T12:45:33.799Z,13.90
2023-11-21T12:50:35.773Z,18.65
2023-11-21T12:55:37.417Z,16.35
2023-11-21T13:00:39.468Z,14.82
2023-11-21T13:05:43.884Z,19.35
2023-11-21T13:10:46.653Z,21.10
2023-11-21T13:15:52.466Z,16.55
2023-11-21T13:20:51.604Z,16.25
2023-11-21T13:25:55.056Z,14.18
2023-11-21T13:31:04.095Z,15.13
2023-11-21T13:36:02.894Z,14.32
2023-11-21T13:41:00.185Z,15.63
2023-11-21T13:46:20.647Z,16.30
2023-11-21T13:51:21.786Z,22.70
2023-11-21T13:56:23.677Z,13.27
2023-11-21T14:01:25.196Z,15.10
2023-11-21T14:06:27.974Z,20.02
2023-11-21T14:11:28.340Z,18.13
2023-11-21T14:16:28.473Z,17.17
2023-11-21T14:21:25.881Z,15.23
2023-11-21T14:26:25.104Z,13.70
2023-11-21T14:31:23.644Z,17.77
2023-11-21T14:36:21.314Z,15.05
2023-11-21T14:41:18.676Z,16.48
2023-11-21T14:46:18.653Z,25.23
2023-11-21T14:51:52.693Z,19.88
2023-11-21T14:56:50.084Z,16.70
2023-11-21T15:01:56.299Z,47.35
2023-11-21T15:06:55.046Z,34.72
2023-11-21T15:11:56.076Z,18.48
2023-11-21T15:16:54.984Z,18.65
2023-11-21T15:21:52.293Z,15.95
2023-11-21T15:26:49.850Z,12.50
2023-11-21T15:31:49.905Z,16.02
2023-11-21T15:41:44.643Z,10.60
2023-11-21T15:46:43.409Z,16.23
2023-11-21T15:51:42.114Z,18.85
2023-11-21T15:56:40.180Z,17.90
2023-11-21T16:01:43.776Z,14.93
2023-11-21T16:06:42.594Z,12.57
2023-11-21T16:11:40.068Z,12.52
2023-11-21T16:16:37.881Z,20.05
2023-11-21T16:21:35.205Z,35.03
2023-11-21T16:26:32.549Z,21.40
2023-11-21T16:31:30.518Z,22.20
2023-11-21T16:36:27.724Z,20.70
2023-11-21T16:41:24.998Z,19.15
2023-11-21T16:46:22.326Z,19.48
2023-11-21T16:51:20.402Z,21.00
2023-11-21T16:56:17.879Z,25.67
2023-11-21T17:01:15.195Z,34.15
2023-11-21T17:06:12.629Z,36.13
2023-11-21T17:11:14.967Z,42.78
2023-11-21T17:16:13.432Z,42.58
2023-11-21T17:21:19.464Z,40.95
2023-11-21T17:26:20.470Z,43.38
2023-11-21T17:31:23.590Z,35.88
2023-11-21T17:36:21.821Z,31.83
2023-11-21T17:41:23.119Z,30.00
2023-11-21T17:46:23.918Z,31.02
2023-11-21T17:51:22.022Z,36.95
2023-11-21T17:56:20.865Z,31.67
2023-11-21T18:01:18.711Z,30.33
2023-11-21T18:06:15.970Z,36.90
2023-11-21T18:11:13.440Z,32.97
2023-11-21T18:16:11.133Z,33.42
2023-11-21T18:21:10.100Z,28.67
2023-11-21T18:26:12.049Z,39.27
2023-11-21T18:31:11.240Z,34.05
2023-11-21T18:36:09.125Z,34.22
2023-11-21T18:41:07.330Z,32.60
2023-11-21T18:46:04.828Z,42.33
2023-11-21T18:51:02.433Z,40.90
2023-11-21T18:55:59.858Z,36.53
2023-11-21T19:00:58.028Z,53.88
2023-11-21T19:05:55.306Z,37.90
2023-11-21T19:10:52.584Z,46.75
2023-11-21T19:15:49.958Z,39.38
2023-11-21T19:20:47.314Z,81.03
2023-11-21T19:25:45.461Z,71.55
2023-11-21T19:30:43.239Z,89.78
2023-11-21T19:35:40.869Z,63.90
2023-11-21T19:40:38.655Z,50.50
2023-11-21T19:45:36.050Z,112.57
2023-11-21T19:50:34.180Z,226.13
2023-11-21T19:55:31.439Z,158.48
2023-11-21T20:00:30.321Z,123.60
2023-11-21T20:05:28.066Z,151.00
2023-11-21T20:10:25.778Z,163.02
2023-11-21T20:15:23.695Z,110.60
2023-11-21T20:20:21.517Z,176.00
2023-11-21T20:25:22.282Z,143.98
2023-11-21T20:30:21.477Z,149.40
2023-11-21T20:35:20.218Z,159.37
2023-11-21T20:40:18.522Z,175.43
2023-11-21T20:45:15.935Z,121.93
2023-11-21T20:50:13.307Z,90.15
2023-11-21T20:55:11.214Z,138.07
2023-11-21T21:00:15.104Z,61.15
2023-11-21T21:05:15.778Z,73.88
2023-11-21T21:10:15.102Z,71.80
2023-11-21T21:15:12.568Z,62.70
2023-11-21T21:20:16.471Z,66.55
2023-11-21T21:25:14.281Z,80.55
2023-11-21T21:30:12.192Z,112.18
2023-11-21T21:35:09.668Z,125.15
2023-11-21T21:40:09.692Z,78.63
2023-11-21T21:45:07.698Z,140.90
2023-11-21T21:50:05.327Z,114.03
2023-11-21T21:55:03.935Z,96.95
2023-11-21T22:00:01.556Z,131.18
2023-11-21T22:04:59.035Z,91.38
2023-11-21T22:09:56.277Z,71.38
2023-11-21T22:14:53.825Z,64.95
2023-11-21T22:19:52.297Z,77.05
2023-11-21T22:24:49.674Z,157.30
2023-11-21T22:29:47.164Z,181.05
2023-11-21T22:34:44.535Z,88.63
2023-11-21T22:39:46.774Z,68.70
2023-11-21T22:44:44.266Z,49.70
2023-11-21T22:49:41.444Z,79.22
2023-11-21T22:54:38.679Z,68.97
2023-11-21T22:59:36.877Z,57.42
2023-11-21T23:04:34.452Z,64.93
2023-11-21T23:09:33.352Z,56.90
2023-11-21T23:14:30.847Z,38.20
2023-11-21T23:19:28.056Z,50.45
2023-11-21T23:24:26.046Z,53.83
2023-11-21T23:29:24.696Z,66.03
2023-11-21T23:34:22.100Z,72.53
2023-11-21T23:39:19.745Z,60.75
2023-11-21T23:44:17.818Z,51.58
2023-11-21T23:49:15.048Z,50.45
2023-11-21T23:54:12.380Z,66.25
2023-11-21T23:59:10.348Z,53.88
